Time,TemperatureF,DewpointF,PressureIn,WindDirection,WindDirectionDegrees,WindSpeedMPH,WindSpeedGustMPH,Humidity,HourlyPrecipIn,Conditions,Clouds,dailyrainin,SolarRadiationWatts/m^2,SoftwareType,DateUTC
2013-04-12 00:13:00,31.0,28.0,-100.00,East,84,9.0,19.0,90,0.00,,,0.03,1.000000,,2013-04-12 04:13:00,
2013-04-12 00:23:00,31.0,28.0,-100.00,East,84,9.0,19.0,90,0.00,,,0.03,1.000000,,2013-04-12 04:23:00,
2013-04-12 00:33:00,31.0,28.0,-100.00,East,84,9.0,19.0,90,0.00,,,0.03,1.000000,,2013-04-12 04:33:00,
2013-04-12 00:43:00,31.0,28.0,-100.00,East,84,9.0,19.0,90,0.00,,,0.03,1.000000,,2013-04-12 04:43:00,
2013-04-12 01:12:00,-999.0,-99.9,-100.00,East,85,7.0,-999.0,-999,0.00,,,0.03,,,2013-04-12 05:12:00,
2013-04-12 01:23:00,-999.0,-99.9,-100.00,East,85,7.0,-999.0,-999,0.00,,,0.03,,,2013-04-12 05:23:00,
2013-04-12 01:32:00,-999.0,-99.9,-100.00,East,85,7.0,-999.0,-999,0.00,,,0.03,,,2013-04-12 05:32:00,
2013-04-12 01:42:00,-999.0,-99.9,-100.00,East,85,7.0,-999.0,-999,0.00,,,0.03,,,2013-04-12 05:42:00,
2013-04-12 02:12:00,30.0,28.0,-100.00,ENE,73,6.0,14.0,93,0.00,,,0.03,1.000000,,2013-04-12 06:12:00,
2013-04-12 02:22:00,30.0,28.0,-100.00,ENE,73,6.0,14.0,93,0.00,,,0.03,1.000000,,2013-04-12 06:22:00,
2013-04-12 02:32:00,30.0,28.0,-100.00,ENE,73,6.0,14.0,93,0.00,,,0.03,1.000000,,2013-04-12 06:32:00,
2013-04-12 02:42:00,30.0,28.0,-100.00,ENE,73,6.0,14.0,93,0.00,,,0.03,1.000000,,2013-04-12 06:42:00,
2013-04-12 03:12:00,29.0,28.0,-100.00,North,-999,8.0,15.0,97,0.00,,,0.03,1.000000,,2013-04-12 07:12:00,
2013-04-12 03:22:00,29.0,28.0,-100.00,North,-999,8.0,15.0,97,0.00,,,0.03,1.000000,,2013-04-12 07:22:00,
2013-04-12 03:32:00,29.0,28.0,-100.00,North,-999,8.0,15.0,97,0.00,,,0.03,1.000000,,2013-04-12 07:32:00,
2013-04-12 03:42:00,29.0,28.0,-100.00,North,-999,8.0,15.0,97,0.00,,,0.03,1.000000,,2013-04-12 07:42:00,
2013-04-12 12:14:00,34.0,33.0,-100.00,East,96,2.0,7.0,97,-99.99,,,-99.99,172.000000,,2013-04-12 16:14:00,
2013-04-12 12:23:00,34.0,33.0,-100.00,East,96,2.0,7.0,97,-99.99,,,-99.99,172.000000,,2013-04-12 16:23:00,
2013-04-12 12:33:00,34.0,33.0,-100.00,East,96,2.0,7.0,97,-99.99,,,-99.99,172.000000,,2013-04-12 16:33:00,
2013-04-12 12:43:00,34.0,33.0,-100.00,East,96,2.0,7.0,97,-99.99,,,-99.99,172.000000,,2013-04-12 16:43:00,
2013-04-12 12:46:00,36.0,34.0,-100.00,ENE,78,2.0,5.0,93,0.00,,,0.04,221.000000,,2013-04-12 16:46:00,
2013-04-12 13:12:00,36.0,34.0,-100.00,ENE,78,2.0,5.0,93,0.00,,,0.04,221.000000,,2013-04-12 17:12:00,
2013-04-12 13:23:00,36.0,34.0,-100.00,ENE,78,2.0,5.0,93,0.00,,,0.04,221.000000,,2013-04-12 17:23:00,
2013-04-12 13:34:00,36.0,34.0,-100.00,ENE,78,2.0,5.0,93,0.00,,,0.04,221.000000,,2013-04-12 17:34:00,
2013-04-12 14:24:00,36.0,34.0,-100.00,ESE,118,0.0,4.0,94,0.01,,,0.05,219.000000,,2013-04-12 18:24:00,
2013-04-12 15:27:00,39.0,36.0,-100.00,East,85,0.0,3.0,90,0.16,,,0.21,211.000000,,2013-04-12 19:27:00,
2013-04-12 15:33:00,39.0,36.0,-100.00,East,85,0.0,3.0,90,0.16,,,0.21,211.000000,,2013-04-12 19:33:00,
2013-04-12 15:43:00,39.0,36.0,-100.00,East,85,0.0,3.0,90,0.16,,,0.21,211.000000,,2013-04-12 19:43:00,
2013-04-12 16:13:00,37.0,34.0,-100.00,WNW,284,3.0,5.0,88,0.14,,,0.35,270.000000,,2013-04-12 20:13:00,
2013-04-12 16:22:00,37.0,34.0,-100.00,WNW,284,3.0,5.0,88,0.14,,,0.35,270.000000,,2013-04-12 20:22:00,
2013-04-12 16:33:00,37.0,34.0,-100.00,WNW,284,3.0,5.0,88,0.14,,,0.35,270.000000,,2013-04-12 20:33:00,
2013-04-12 16:42:00,37.0,34.0,-100.00,WNW,284,3.0,5.0,88,0.14,,,0.35,270.000000,,2013-04-12 20:42:00,
2013-04-12 17:12:00,38.0,34.0,-100.00,West,264,4.0,6.0,84,0.09,,,0.44,272.000000,,2013-04-12 21:12:00,
2013-04-12 17:22:00,38.0,34.0,-100.00,West,264,4.0,6.0,84,0.09,,,0.44,272.000000,,2013-04-12 21:22:00,
2013-04-12 17:33:00,38.0,34.0,-100.00,West,264,4.0,6.0,84,0.09,,,0.44,272.000000,,2013-04-12 21:33:00,
2013-04-12 17:43:00,38.0,34.0,-100.00,West,264,4.0,6.0,84,0.09,,,0.44,272.000000,,2013-04-12 21:43:00,
2013-04-12 18:13:00,37.0,33.0,-100.00,SW,231,5.0,7.0,84,0.11,,,0.52,243.000000,,2013-04-12 22:13:00,
2013-04-12 18:23:00,37.0,33.0,-100.00,SW,231,5.0,7.0,84,0.11,,,0.52,243.000000,,2013-04-12 22:23:00,
2013-04-12 18:33:00,37.0,33.0,-100.00,SW,231,5.0,7.0,84,0.11,,,0.52,243.000000,,2013-04-12 22:33:00,
2013-04-12 18:43:00,37.0,33.0,-100.00,SW,231,5.0,7.0,84,0.11,,,0.52,243.000000,,2013-04-12 22:43:00,
2013-04-12 19:12:00,36.0,33.0,-100.00,WNW,284,3.0,6.0,89,0.04,,,0.56,76.000000,,2013-04-12 23:12:00,
2013-04-12 19:22:00,36.0,33.0,-100.00,WNW,284,3.0,6.0,89,0.04,,,0.56,76.000000,,2013-04-12 23:22:00,
2013-04-12 19:32:00,36.0,33.0,-100.00,WNW,284,3.0,6.0,89,0.04,,,0.56,76.000000,,2013-04-12 23:32:00,
2013-04-12 19:42:00,36.0,33.0,-100.00,WNW,284,3.0,6.0,89,0.04,,,0.56,76.000000,,2013-04-12 23:42:00,
2013-04-12 20:12:00,34.0,34.0,-100.00,North,9,1.0,4.0,99,0.02,,,0.58,34.000000,,2013-04-13 00:12:00,
2013-04-12 20:22:00,34.0,34.0,-100.00,North,9,1.0,4.0,99,0.02,,,0.58,34.000000,,2013-04-13 00:22:00,
2013-04-12 20:32:00,34.0,34.0,-100.00,North,9,1.0,4.0,99,0.02,,,0.58,34.000000,,2013-04-13 00:32:00,
2013-04-12 20:42:00,34.0,34.0,-100.00,North,9,1.0,4.0,99,0.02,,,0.58,34.000000,,2013-04-13 00:42:00,
2013-04-12 21:13:00,33.0,33.0,-100.00,North,9,2.0,3.0,100,0.01,,,0.59,4.000000,,2013-04-13 01:13:00,
2013-04-12 21:22:00,33.0,33.0,-100.00,North,9,2.0,3.0,100,0.01,,,0.59,4.000000,,2013-04-13 01:22:00,
2013-04-12 21:33:00,33.0,33.0,-100.00,North,9,2.0,3.0,100,0.01,,,0.59,4.000000,,2013-04-13 01:33:00,
2013-04-12 21:43:00,33.0,33.0,-100.00,North,9,2.0,3.0,100,0.01,,,0.59,4.000000,,2013-04-13 01:43:00,
2013-04-12 22:12:00,33.0,33.0,-100.00,NE,40,0.0,3.0,100,0.00,,,0.59,1.000000,,2013-04-13 02:12:00,
2013-04-12 22:23:00,33.0,33.0,-100.00,NE,40,0.0,3.0,100,0.00,,,0.59,1.000000,,2013-04-13 02:23:00,
2013-04-12 22:33:00,33.0,33.0,-100.00,NE,40,0.0,3.0,100,0.00,,,0.59,1.000000,,2013-04-13 02:33:00,
2013-04-12 22:42:00,33.0,33.0,-100.00,NE,40,0.0,3.0,100,0.00,,,0.59,1.000000,,2013-04-13 02:42:00,
2013-04-12 23:12:00,33.0,33.0,-100.00,North,5,0.0,3.0,100,0.01,,,0.60,1.000000,,2013-04-13 03:12:00,
2013-04-12 23:23:00,33.0,33.0,-100.00,North,5,0.0,3.0,100,0.01,,,0.60,1.000000,,2013-04-13 03:23:00,
2013-04-12 23:33:00,33.0,33.0,-100.00,North,5,0.0,3.0,100,0.01,,,0.60,1.000000,,2013-04-13 03:33:00,
2013-04-12 23:43:00,33.0,33.0,-100.00,North,5,0.0,3.0,100,0.01,,,0.60,1.000000,,2013-04-13 03:43:00,